sensor_id;sensor_type;location;lat;lon;timestamp;P1;durP1;ratioP1;P2;durP2;ratioP2
55493;SDS011;41355;50.390;19.096;2023-02-13T00:00:53;434.00;;;119.72;;
55493;SDS011;41355;50.390;19.096;2023-02-13T00:03:19;399.48;;;112.10;;
55493;SDS011;41355;50.390;19.096;2023-02-13T00:05:45;434.60;;;123.38;;
55493;SDS011;41355;50.390;19.096;2023-02-13T00:08:11;439.70;;;120.85;;
55493;SDS011;41355;50.390;19.096;2023-02-13T00:10:37;300.55;;;86.78;;
55493;SDS011;41355;50.390;19.096;2023-02-13T00:13:03;408.38;;;112.43;;
55493;SDS011;41355;50.390;19.096;2023-02-13T00:15:29;542.60;;;161.50;;
55493;SDS011;41355;50.390;19.096;2023-02-13T00:17:55;511.90;;;144.25;;
55493;SDS011;41355;50.390;19.096;2023-02-13T00:20:22;423.77;;;117.47;;
55493;SDS011;41355;50.390;19.096;2023-02-13T00:22:48;519.47;;;149.60;;
55493;SDS011;41355;50.390;19.096;2023-02-13T00:25:14;454.85;;;124.28;;
55493;SDS011;41355;50.390;19.096;2023-02-13T00:27:40;438.60;;;116.60;;
55493;SDS011;41355;50.390;19.096;2023-02-13T00:30:06;344.17;;;95.32;;
55493;SDS011;41355;50.390;19.096;2023-02-13T00:32:32;388.65;;;101.68;;
55493;SDS011;41355;50.390;19.096;2023-02-13T00:34:58;397.75;;;103.70;;
55493;SDS011;41355;50.390;19.096;2023-02-13T00:37:24;440.50;;;119.68;;
55493;SDS011;41355;50.390;19.096;2023-02-13T00:39:51;420.45;;;113.13;;
55493;SDS011;41355;50.390;19.096;2023-02-13T00:42:17;468.48;;;129.40;;
55493;SDS011;41355;50.390;19.096;2023-02-13T00:44:47;470.27;;;127.88;;
55493;SDS011;41355;50.390;19.096;2023-02-13T00:47:13;458.58;;;129.75;;
55493;SDS011;41355;50.390;19.096;2023-02-13T00:49:39;415.83;;;114.63;;
55493;SDS011;41355;50.390;19.096;2023-02-13T00:52:06;307.55;;;84.47;;
55493;SDS011;41355;50.390;19.096;2023-02-13T00:54:32;350.33;;;96.60;;
55493;SDS011;41355;50.390;19.096;2023-02-13T00:56:58;378.45;;;101.05;;
55493;SDS011;41355;50.390;19.096;2023-02-13T00:59:24;396.52;;;101.95;;
55493;SDS011;41355;50.390;19.096;2023-02-13T01:01:50;419.08;;;102.32;;
55493;SDS011;41355;50.390;19.096;2023-02-13T01:04:16;444.08;;;117.55;;
55493;SDS011;41355;50.390;19.096;2023-02-13T01:06:42;430.08;;;107.03;;
55493;SDS011;41355;50.390;19.096;2023-02-13T01:09:08;452.73;;;120.40;;
55493;SDS011;41355;50.390;19.096;2023-02-13T01:11:34;357.58;;;93.30;;
55493;SDS011;41355;50.390;19.096;2023-02-13T01:14:00;399.55;;;104.65;;
55493;SDS011;41355;50.390;19.096;2023-02-13T01:16:26;386.15;;;103.40;;
55493;SDS011;41355;50.390;19.096;2023-02-13T01:18:53;377.17;;;95.45;;
55493;SDS011;41355;50.390;19.096;2023-02-13T01:21:19;365.33;;;94.68;;
55493;SDS011;41355;50.390;19.096;2023-02-13T01:23:47;357.63;;;95.30;;
55493;SDS011;41355;50.390;19.096;2023-02-13T01:26:21;410.50;;;101.57;;
55493;SDS011;41355;50.390;19.096;2023-02-13T01:28:47;414.70;;;107.57;;
55493;SDS011;41355;50.390;19.096;2023-02-13T01:31:13;394.02;;;107.63;;
55493;SDS011;41355;50.390;19.096;2023-02-13T01:33:39;432.33;;;111.80;;
55493;SDS011;41355;50.390;19.096;2023-02-13T01:36:09;433.05;;;115.32;;
55493;SDS011;41355;50.390;19.096;2023-02-13T01:38:35;380.15;;;94.32;;
55493;SDS011;41355;50.390;19.096;2023-02-13T01:41:01;388.02;;;100.55;;
55493;SDS011;41355;50.390;19.096;2023-02-13T01:48:38;435.95;;;111.78;;
55493;SDS011;41355;50.390;19.096;2023-02-13T01:51:09;318.38;;;85.45;;
55493;SDS011;41355;50.390;19.096;2023-02-13T01:53:59;415.35;;;107.20;;
55493;SDS011;41355;50.390;19.096;2023-02-13T01:56:27;445.30;;;111.00;;
55493;SDS011;41355;50.390;19.096;2023-02-13T01:58:55;433.83;;;108.35;;
55493;SDS011;41355;50.390;19.096;2023-02-13T02:01:22;319.42;;;82.07;;
55493;SDS011;41355;50.390;19.096;2023-02-13T02:03:54;463.90;;;121.55;;
55493;SDS011;41355;50.390;19.096;2023-02-13T02:06:26;416.13;;;104.03;;
55493;SDS011;41355;50.390;19.096;2023-02-13T02:08:54;495.38;;;132.93;;
55493;SDS011;41355;50.390;19.096;2023-02-13T02:11:29;421.10;;;104.90;;
55493;SDS011;41355;50.390;19.096;2023-02-13T02:13:56;439.38;;;109.30;;
55493;SDS011;41355;50.390;19.096;2023-02-13T02:16:23;427.65;;;106.28;;
55493;SDS011;41355;50.390;19.096;2023-02-13T02:18:50;435.67;;;106.65;;
55493;SDS011;41355;50.390;19.096;2023-02-13T02:21:26;464.08;;;114.55;;
55493;SDS011;41355;50.390;19.096;2023-02-13T02:26:36;408.58;;;100.85;;
55493;SDS011;41355;50.390;19.096;2023-02-13T02:39:28;481.70;;;122.30;;
55493;SDS011;41355;50.390;19.096;2023-02-13T02:49:34;425.33;;;95.80;;
55493;SDS011;41355;50.390;19.096;2023-02-13T02:52:24;400.85;;;84.30;;
55493;SDS011;41355;50.390;19.096;2023-02-13T02:54:59;379.55;;;80.65;;
55493;SDS011;41355;50.390;19.096;2023-02-13T02:57:37;388.48;;;87.13;;
55493;SDS011;41355;50.390;19.096;2023-02-13T03:00:23;393.63;;;81.35;;
55493;SDS011;41355;50.390;19.096;2023-02-13T03:03:27;394.73;;;77.70;;
55493;SDS011;41355;50.390;19.096;2023-02-13T03:06:16;395.35;;;76.60;;
55493;SDS011;41355;50.390;19.096;2023-02-13T03:08:46;428.60;;;77.55;;
55493;SDS011;41355;50.390;19.096;2023-02-13T03:11:34;487.77;;;89.15;;
55493;SDS011;41355;50.390;19.096;2023-02-13T03:14:19;357.48;;;73.43;;
55493;SDS011;41355;50.390;19.096;2023-02-13T03:16:46;449.85;;;87.38;;
55493;SDS011;41355;50.390;19.096;2023-02-13T03:19:37;463.05;;;90.15;;
55493;SDS011;41355;50.390;19.096;2023-02-13T03:33:26;325.17;;;57.42;;
55493;SDS011;41355;50.390;19.096;2023-02-13T03:38:58;414.95;;;71.88;;
55493;SDS011;41355;50.390;19.096;2023-02-13T03:41:45;246.20;;;48.05;;
55493;SDS011;41355;50.390;19.096;2023-02-13T03:44:25;486.30;;;75.38;;
55493;SDS011;41355;50.390;19.096;2023-02-13T03:46:52;958.30;;;194.88;;
55493;SDS011;41355;50.390;19.096;2023-02-13T03:49:30;649.38;;;113.25;;
55493;SDS011;41355;50.390;19.096;2023-02-13T03:54:50;449.67;;;65.68;;
55493;SDS011;41355;50.390;19.096;2023-02-13T03:57:36;347.92;;;74.70;;
55493;SDS011;41355;50.390;19.096;2023-02-13T04:00:22;322.70;;;73.97;;
55493;SDS011;41355;50.390;19.096;2023-02-13T04:02:52;397.63;;;75.25;;
55493;SDS011;41355;50.390;19.096;2023-02-13T04:05:23;528.95;;;97.85;;
55493;SDS011;41355;50.390;19.096;2023-02-13T04:07:49;544.63;;;118.10;;
55493;SDS011;41355;50.390;19.096;2023-02-13T04:10:16;707.15;;;129.30;;
55493;SDS011;41355;50.390;19.096;2023-02-13T04:15:30;310.70;;;57.72;;
55493;SDS011;41355;50.390;19.096;2023-02-13T04:20:27;253.48;;;47.00;;
55493;SDS011;41355;50.390;19.096;2023-02-13T04:22:53;409.80;;;60.17;;
55493;SDS011;41355;50.390;19.096;2023-02-13T04:25:19;495.95;;;73.10;;
55493;SDS011;41355;50.390;19.096;2023-02-13T04:27:46;410.92;;;66.55;;
55493;SDS011;41355;50.390;19.096;2023-02-13T04:30:12;360.58;;;57.45;;
55493;SDS011;41355;50.390;19.096;2023-02-13T04:32:38;384.92;;;58.45;;
55493;SDS011;41355;50.390;19.096;2023-02-13T04:35:04;542.33;;;89.13;;
55493;SDS011;41355;50.390;19.096;2023-02-13T04:37:30;452.02;;;61.20;;
55493;SDS011;41355;50.390;19.096;2023-02-13T04:39:56;567.95;;;72.50;;
55493;SDS011;41355;50.390;19.096;2023-02-13T04:42:22;529.38;;;78.30;;
55493;SDS011;41355;50.390;19.096;2023-02-13T04:44:48;544.33;;;82.70;;
55493;SDS011;41355;50.390;19.096;2023-02-13T04:47:14;625.05;;;85.95;;
55493;SDS011;41355;50.390;19.096;2023-02-13T04:49:40;915.80;;;162.27;;
55493;SDS011;41355;50.390;19.096;2023-02-13T04:52:06;609.40;;;95.72;;
55493;SDS011;41355;50.390;19.096;2023-02-13T04:54:32;631.30;;;86.93;;
55493;SDS011;41355;50.390;19.096;2023-02-13T04:56:58;603.03;;;84.18;;
55493;SDS011;41355;50.390;19.096;2023-02-13T04:59:24;589.58;;;83.70;;
55493;SDS011;41355;50.390;19.096;2023-02-13T05:01:50;603.92;;;89.55;;
55493;SDS011;41355;50.390;19.096;2023-02-13T05:04:17;737.92;;;106.03;;
55493;SDS011;41355;50.390;19.096;2023-02-13T05:06:43;639.03;;;92.50;;
55493;SDS011;41355;50.390;19.096;2023-02-13T05:09:09;987.10;;;229.45;;
55493;SDS011;41355;50.390;19.096;2023-02-13T05:11:35;409.70;;;58.25;;
55493;SDS011;41355;50.390;19.096;2023-02-13T05:14:01;724.40;;;114.57;;
55493;SDS011;41355;50.390;19.096;2023-02-13T05:16:27;752.47;;;123.85;;
55493;SDS011;41355;50.390;19.096;2023-02-13T05:18:53;354.05;;;60.88;;
55493;SDS011;41355;50.390;19.096;2023-02-13T05:21:20;503.25;;;70.78;;
55493;SDS011;41355;50.390;19.096;2023-02-13T05:24:04;383.33;;;55.63;;
55493;SDS011;41355;50.390;19.096;2023-02-13T05:26:30;459.23;;;61.25;;
55493;SDS011;41355;50.390;19.096;2023-02-13T05:28:57;537.85;;;66.18;;
55493;SDS011;41355;50.390;19.096;2023-02-13T05:31:41;527.22;;;84.38;;
55493;SDS011;41355;50.390;19.096;2023-02-13T05:34:07;350.15;;;55.63;;
55493;SDS011;41355;50.390;19.096;2023-02-13T05:36:33;343.30;;;53.83;;
55493;SDS011;41355;50.390;19.096;2023-02-13T05:38:59;456.70;;;58.60;;
55493;SDS011;41355;50.390;19.096;2023-02-13T05:41:25;546.35;;;66.82;;
55493;SDS011;41355;50.390;19.096;2023-02-13T05:43:51;347.60;;;51.30;;
55493;SDS011;41355;50.390;19.096;2023-02-13T05:46:17;341.35;;;51.72;;
55493;SDS011;41355;50.390;19.096;2023-02-13T05:48:43;584.65;;;83.18;;
55493;SDS011;41355;50.390;19.096;2023-02-13T05:51:09;359.10;;;48.63;;
55493;SDS011;41355;50.390;19.096;2023-02-13T05:53:36;370.08;;;53.53;;
55493;SDS011;41355;50.390;19.096;2023-02-13T05:56:02;684.28;;;81.13;;
55493;SDS011;41355;50.390;19.096;2023-02-13T05:58:29;380.23;;;60.15;;
55493;SDS011;41355;50.390;19.096;2023-02-13T06:00:56;465.30;;;59.20;;
55493;SDS011;41355;50.390;19.096;2023-02-13T06:03:22;703.85;;;95.40;;
55493;SDS011;41355;50.390;19.096;2023-02-13T06:05:49;627.97;;;96.88;;
55493;SDS011;41355;50.390;19.096;2023-02-13T06:08:15;530.90;;;75.80;;
55493;SDS011;41355;50.390;19.096;2023-02-13T06:10:41;413.15;;;60.85;;
55493;SDS011;41355;50.390;19.096;2023-02-13T06:13:07;314.63;;;49.55;;
55493;SDS011;41355;50.390;19.096;2023-02-13T06:15:33;424.13;;;60.08;;
55493;SDS011;41355;50.390;19.096;2023-02-13T06:17:59;366.27;;;59.63;;
55493;SDS011;41355;50.390;19.096;2023-02-13T06:20:25;534.67;;;92.75;;
55493;SDS011;41355;50.390;19.096;2023-02-13T06:22:51;441.60;;;87.22;;
55493;SDS011;41355;50.390;19.096;2023-02-13T06:25:18;581.72;;;80.07;;
55493;SDS011;41355;50.390;19.096;2023-02-13T06:27:44;540.75;;;85.18;;
55493;SDS011;41355;50.390;19.096;2023-02-13T06:30:10;493.02;;;89.78;;
55493;SDS011;41355;50.390;19.096;2023-02-13T06:32:36;383.70;;;52.10;;
55493;SDS011;41355;50.390;19.096;2023-02-13T06:35:03;548.65;;;81.63;;
55493;SDS011;41355;50.390;19.096;2023-02-13T06:37:29;511.20;;;66.93;;
55493;SDS011;41355;50.390;19.096;2023-02-13T06:39:55;273.95;;;42.42;;
55493;SDS011;41355;50.390;19.096;2023-02-13T06:42:21;292.80;;;40.28;;
55493;SDS011;41355;50.390;19.096;2023-02-13T06:44:47;364.13;;;49.08;;
55493;SDS011;41355;50.390;19.096;2023-02-13T06:47:13;326.67;;;47.13;;
55493;SDS011;41355;50.390;19.096;2023-02-13T06:49:40;523.45;;;68.50;;
55493;SDS011;41355;50.390;19.096;2023-02-13T06:52:06;563.65;;;76.10;;
55493;SDS011;41355;50.390;19.096;2023-02-13T06:54:32;466.20;;;70.80;;
55493;SDS011;41355;50.390;19.096;2023-02-13T06:56:58;513.25;;;72.15;;
55493;SDS011;41355;50.390;19.096;2023-02-13T06:59:24;582.33;;;91.88;;
55493;SDS011;41355;50.390;19.096;2023-02-13T07:01:50;676.35;;;93.30;;
55493;SDS011;41355;50.390;19.096;2023-02-13T07:04:16;547.65;;;79.60;;
55493;SDS011;41355;50.390;19.096;2023-02-13T07:06:42;478.05;;;72.38;;
55493;SDS011;41355;50.390;19.096;2023-02-13T07:09:08;476.95;;;78.15;;
55493;SDS011;41355;50.390;19.096;2023-02-13T07:11:37;406.25;;;71.43;;
55493;SDS011;41355;50.390;19.096;2023-02-13T07:14:05;175.98;;;37.17;;
55493;SDS011;41355;50.390;19.096;2023-02-13T07:16:31;381.13;;;59.42;;
55493;SDS011;41355;50.390;19.096;2023-02-13T07:18:57;472.95;;;69.18;;
55493;SDS011;41355;50.390;19.096;2023-02-13T07:21:24;568.55;;;88.90;;
55493;SDS011;41355;50.390;19.096;2023-02-13T07:23:50;381.67;;;62.20;;
55493;SDS011;41355;50.390;19.096;2023-02-13T07:26:16;285.73;;;49.30;;
55493;SDS011;41355;50.390;19.096;2023-02-13T07:28:42;435.65;;;67.47;;
55493;SDS011;41355;50.390;19.096;2023-02-13T07:31:08;383.83;;;60.90;;
55493;SDS011;41355;50.390;19.096;2023-02-13T07:33:35;440.08;;;62.83;;
55493;SDS011;41355;50.390;19.096;2023-02-13T07:36:01;347.15;;;57.88;;
55493;SDS011;41355;50.390;19.096;2023-02-13T07:38:28;295.50;;;49.97;;
55493;SDS011;41355;50.390;19.096;2023-02-13T07:40:56;381.58;;;55.67;;
55493;SDS011;41355;50.390;19.096;2023-02-13T07:43:22;443.33;;;63.28;;
55493;SDS011;41355;50.390;19.096;2023-02-13T07:45:49;291.20;;;51.30;;
55493;SDS011;41355;50.390;19.096;2023-02-13T07:48:19;218.73;;;43.47;;
55493;SDS011;41355;50.390;19.096;2023-02-13T07:50:45;366.30;;;73.07;;
55493;SDS011;41355;50.390;19.096;2023-02-13T07:53:11;387.52;;;60.17;;
55493;SDS011;41355;50.390;19.096;2023-02-13T07:55:37;428.70;;;75.93;;
55493;SDS011;41355;50.390;19.096;2023-02-13T07:58:03;372.27;;;61.60;;
55493;SDS011;41355;50.390;19.096;2023-02-13T08:00:29;400.65;;;71.65;;
55493;SDS011;41355;50.390;19.096;2023-02-13T08:02:59;1168.22;;;348.00;;
55493;SDS011;41355;50.390;19.096;2023-02-13T08:05:25;521.33;;;112.47;;
55493;SDS011;41355;50.390;19.096;2023-02-13T08:07:53;373.42;;;69.47;;
55493;SDS011;41355;50.390;19.096;2023-02-13T08:10:19;351.30;;;64.03;;
55493;SDS011;41355;50.390;19.096;2023-02-13T08:13:04;342.90;;;67.82;;
55493;SDS011;41355;50.390;19.096;2023-02-13T08:15:30;422.13;;;77.00;;
55493;SDS011;41355;50.390;19.096;2023-02-13T08:17:56;414.77;;;76.75;;
55493;SDS011;41355;50.390;19.096;2023-02-13T08:20:22;467.85;;;90.53;;
55493;SDS011;41355;50.390;19.096;2023-02-13T08:22:48;246.15;;;50.10;;
55493;SDS011;41355;50.390;19.096;2023-02-13T08:25:15;433.10;;;85.45;;
55493;SDS011;41355;50.390;19.096;2023-02-13T08:27:41;379.30;;;78.18;;
55493;SDS011;41355;50.390;19.096;2023-02-13T08:30:07;426.73;;;71.57;;
55493;SDS011;41355;50.390;19.096;2023-02-13T08:32:33;488.58;;;91.68;;
55493;SDS011;41355;50.390;19.096;2023-02-13T08:34:59;456.23;;;79.65;;
55493;SDS011;41355;50.390;19.096;2023-02-13T08:37:25;428.10;;;83.85;;
55493;SDS011;41355;50.390;19.096;2023-02-13T08:39:51;352.45;;;75.57;;
55493;SDS011;41355;50.390;19.096;2023-02-13T08:42:17;407.88;;;84.25;;
55493;SDS011;41355;50.390;19.096;2023-02-13T08:44:43;329.27;;;66.90;;
55493;SDS011;41355;50.390;19.096;2023-02-13T08:47:10;275.75;;;55.63;;
55493;SDS011;41355;50.390;19.096;2023-02-13T08:49:36;398.92;;;80.85;;
55493;SDS011;41355;50.390;19.096;2023-02-13T08:52:02;398.40;;;80.95;;
55493;SDS011;41355;50.390;19.096;2023-02-13T08:54:28;460.98;;;89.65;;
55493;SDS011;41355;50.390;19.096;2023-02-13T08:56:55;479.85;;;94.10;;
55493;SDS011;41355;50.390;19.096;2023-02-13T08:59:21;396.90;;;81.05;;
55493;SDS011;41355;50.390;19.096;2023-02-13T09:01:47;508.20;;;105.20;;
55493;SDS011;41355;50.390;19.096;2023-02-13T09:04:13;302.88;;;73.30;;
55493;SDS011;41355;50.390;19.096;2023-02-13T09:06:40;420.80;;;85.38;;
55493;SDS011;41355;50.390;19.096;2023-02-13T09:09:06;314.35;;;64.10;;
55493;SDS011;41355;50.390;19.096;2023-02-13T09:11:33;373.60;;;84.72;;
55493;SDS011;41355;50.390;19.096;2023-02-13T09:13:59;546.17;;;115.00;;
55493;SDS011;41355;50.390;19.096;2023-02-13T09:16:25;710.72;;;152.45;;
55493;SDS011;41355;50.390;19.096;2023-02-13T09:18:51;678.28;;;143.55;;
55493;SDS011;41355;50.390;19.096;2023-02-13T09:21:18;507.77;;;107.80;;
55493;SDS011;41355;50.390;19.096;2023-02-13T09:23:44;534.08;;;119.18;;
55493;SDS011;41355;50.390;19.096;2023-02-13T09:26:11;467.83;;;99.70;;
55493;SDS011;41355;50.390;19.096;2023-02-13T09:28:38;560.05;;;124.75;;
55493;SDS011;41355;50.390;19.096;2023-02-13T09:31:08;292.92;;;75.10;;
55493;SDS011;41355;50.390;19.096;2023-02-13T09:33:34;248.10;;;58.50;;
55493;SDS011;41355;50.390;19.096;2023-02-13T09:36:10;229.40;;;54.85;;
55493;SDS011;41355;50.390;19.096;2023-02-13T09:38:38;123.22;;;34.10;;
55493;SDS011;41355;50.390;19.096;2023-02-13T09:41:09;103.60;;;31.88;;
55493;SDS011;41355;50.390;19.096;2023-02-13T09:43:37;177.70;;;51.83;;
55493;SDS011;41355;50.390;19.096;2023-02-13T09:46:11;225.70;;;50.47;;
55493;SDS011;41355;50.390;19.096;2023-02-13T09:48:38;236.65;;;56.25;;
55493;SDS011;41355;50.390;19.096;2023-02-13T09:51:05;183.77;;;44.05;;
55493;SDS011;41355;50.390;19.096;2023-02-13T09:53:31;196.27;;;51.42;;
55493;SDS011;41355;50.390;19.096;2023-02-13T09:56:07;223.05;;;51.45;;
55493;SDS011;41355;50.390;19.096;2023-02-13T09:58:42;313.75;;;71.68;;
55493;SDS011;41355;50.390;19.096;2023-02-13T10:01:26;138.52;;;34.92;;
55493;SDS011;41355;50.390;19.096;2023-02-13T10:06:39;237.43;;;50.53;;
55493;SDS011;41355;50.390;19.096;2023-02-13T10:12:02;150.88;;;34.25;;
55493;SDS011;41355;50.390;19.096;2023-02-13T10:14:51;213.50;;;57.45;;
55493;SDS011;41355;50.390;19.096;2023-02-13T10:17:20;169.27;;;39.00;;
55493;SDS011;41355;50.390;19.096;2023-02-13T10:19:54;334.15;;;77.65;;
55493;SDS011;41355;50.390;19.096;2023-02-13T10:22:32;254.02;;;59.90;;
55493;SDS011;41355;50.390;19.096;2023-02-13T10:25:04;148.80;;;45.10;;
55493;SDS011;41355;50.390;19.096;2023-02-13T10:30:02;316.88;;;79.15;;
55493;SDS011;41355;50.390;19.096;2023-02-13T10:35:18;248.27;;;64.60;;
55493;SDS011;41355;50.390;19.096;2023-02-13T10:37:45;149.88;;;49.20;;
55493;SDS011;41355;50.390;19.096;2023-02-13T10:40:15;264.50;;;70.57;;
55493;SDS011;41355;50.390;19.096;2023-02-13T10:42:45;281.00;;;64.75;;
55493;SDS011;41355;50.390;19.096;2023-02-13T10:48:26;229.60;;;53.10;;
55493;SDS011;41355;50.390;19.096;2023-02-13T10:51:04;308.05;;;75.05;;
55493;SDS011;41355;50.390;19.096;2023-02-13T10:56:17;159.02;;;46.25;;
55493;SDS011;41355;50.390;19.096;2023-02-13T10:58:49;213.85;;;55.47;;
55493;SDS011;41355;50.390;19.096;2023-02-13T11:06:27;299.58;;;67.03;;
55493;SDS011;41355;50.390;19.096;2023-02-13T11:08:54;319.25;;;83.38;;
55493;SDS011;41355;50.390;19.096;2023-02-13T11:14:08;355.25;;;97.38;;
55493;SDS011;41355;50.390;19.096;2023-02-13T11:16:42;323.25;;;91.80;;
55493;SDS011;41355;50.390;19.096;2023-02-13T11:19:15;361.75;;;88.25;;
55493;SDS011;41355;50.390;19.096;2023-02-13T11:21:42;260.95;;;55.92;;
55493;SDS011;41355;50.390;19.096;2023-02-13T11:24:16;378.35;;;95.30;;
55493;SDS011;41355;50.390;19.096;2023-02-13T11:26:42;239.95;;;52.13;;
55493;SDS011;41355;50.390;19.096;2023-02-13T11:29:50;295.65;;;60.08;;
55493;SDS011;41355;50.390;19.096;2023-02-13T11:34:28;251.23;;;60.33;;
55493;SDS011;41355;50.390;19.096;2023-02-13T11:39:33;276.60;;;62.63;;
55493;SDS011;41355;50.390;19.096;2023-02-13T11:41:59;230.23;;;61.72;;
55493;SDS011;41355;50.390;19.096;2023-02-13T11:46:51;236.02;;;56.17;;
55493;SDS011;41355;50.390;19.096;2023-02-13T11:49:24;388.38;;;90.45;;
55493;SDS011;41355;50.390;19.096;2023-02-13T11:51:52;221.57;;;50.53;;
55493;SDS011;41355;50.390;19.096;2023-02-13T11:54:28;284.27;;;64.40;;
55493;SDS011;41355;50.390;19.096;2023-02-13T11:56:56;282.85;;;62.60;;
55493;SDS011;41355;50.390;19.096;2023-02-13T11:59:23;143.95;;;35.53;;
55493;SDS011;41355;50.390;19.096;2023-02-13T12:02:12;263.50;;;56.38;;
55493;SDS011;41355;50.390;19.096;2023-02-13T12:04:36;221.27;;;52.53;;
55493;SDS011;41355;50.390;19.096;2023-02-13T12:09:40;369.15;;;94.10;;
55493;SDS011;41355;50.390;19.096;2023-02-13T12:12:08;1896.18;;;535.55;;
55493;SDS011;41355;50.390;19.096;2023-02-13T12:14:38;1451.45;;;423.20;;
55493;SDS011;41355;50.390;19.096;2023-02-13T12:17:13;654.33;;;173.48;;
55493;SDS011;41355;50.390;19.096;2023-02-13T12:19:41;935.30;;;300.27;;
55493;SDS011;41355;50.390;19.096;2023-02-13T12:27:25;1114.18;;;325.15;;
55493;SDS011;41355;50.390;19.096;2023-02-13T12:32:55;904.78;;;210.82;;
55493;SDS011;41355;50.390;19.096;2023-02-13T12:50:42;543.33;;;152.40;;
55493;SDS011;41355;50.390;19.096;2023-02-13T12:53:16;676.50;;;203.02;;
55493;SDS011;41355;50.390;19.096;2023-02-13T13:00:54;251.25;;;64.18;;
55493;SDS011;41355;50.390;19.096;2023-02-13T13:06:08;223.38;;;63.03;;
55493;SDS011;41355;50.390;19.096;2023-02-13T13:08:44;357.40;;;88.80;;
55493;SDS011;41355;50.390;19.096;2023-02-13T13:16:20;396.40;;;95.60;;
55493;SDS011;41355;50.390;19.096;2023-02-13T13:24:21;257.73;;;65.22;;
55493;SDS011;41355;50.390;19.096;2023-02-13T13:26:48;318.55;;;77.25;;
55493;SDS011;41355;50.390;19.096;2023-02-13T13:29:19;228.02;;;54.83;;
55493;SDS011;41355;50.390;19.096;2023-02-13T13:31:56;324.13;;;75.95;;
55493;SDS011;41355;50.390;19.096;2023-02-13T13:34:25;194.55;;;46.53;;
55493;SDS011;41355;50.390;19.096;2023-02-13T13:37:05;191.07;;;45.20;;
55493;SDS011;41355;50.390;19.096;2023-02-13T13:39:35;99.32;;;25.63;;
55493;SDS011;41355;50.390;19.096;2023-02-13T13:47:15;57.72;;;15.50;;
55493;SDS011;41355;50.390;19.096;2023-02-13T13:54:48;46.55;;;12.35;;
55493;SDS011;41355;50.390;19.096;2023-02-13T13:57:20;31.55;;;10.77;;
55493;SDS011;41355;50.390;19.096;2023-02-13T14:07:20;47.70;;;11.75;;
55493;SDS011;41355;50.390;19.096;2023-02-13T14:09:48;48.88;;;13.77;;
55493;SDS011;41355;50.390;19.096;2023-02-13T14:15:03;40.17;;;11.02;;
55493;SDS011;41355;50.390;19.096;2023-02-13T14:22:46;178.77;;;35.22;;
55493;SDS011;41355;50.390;19.096;2023-02-13T14:25:23;33.50;;;9.50;;
55493;SDS011;41355;50.390;19.096;2023-02-13T14:27:59;14.18;;;3.90;;
55493;SDS011;41355;50.390;19.096;2023-02-13T14:30:46;19.20;;;6.10;;
55493;SDS011;41355;50.390;19.096;2023-02-13T14:33:21;193.13;;;49.25;;
55493;SDS011;41355;50.390;19.096;2023-02-13T14:35:57;149.70;;;39.95;;
55493;SDS011;41355;50.390;19.096;2023-02-13T14:38:24;114.28;;;32.53;;
55493;SDS011;41355;50.390;19.096;2023-02-13T14:40:50;80.68;;;22.83;;
55493;SDS011;41355;50.390;19.096;2023-02-13T14:48:51;90.13;;;28.52;;
55493;SDS011;41355;50.390;19.096;2023-02-13T14:51:21;83.57;;;25.65;;
55493;SDS011;41355;50.390;19.096;2023-02-13T14:53:54;137.27;;;36.15;;
55493;SDS011;41355;50.390;19.096;2023-02-13T14:56:21;41.17;;;13.20;;
55493;SDS011;41355;50.390;19.096;2023-02-13T14:58:54;46.47;;;14.70;;
55493;SDS011;41355;50.390;19.096;2023-02-13T15:01:27;54.25;;;15.45;;
55493;SDS011;41355;50.390;19.096;2023-02-13T15:06:32;39.60;;;8.32;;
55493;SDS011;41355;50.390;19.096;2023-02-13T15:09:00;20.85;;;6.30;;
55493;SDS011;41355;50.390;19.096;2023-02-13T15:11:35;20.30;;;5.47;;
55493;SDS011;41355;50.390;19.096;2023-02-13T15:14:14;152.38;;;32.15;;
55493;SDS011;41355;50.390;19.096;2023-02-13T15:16:41;22.15;;;7.57;;
55493;SDS011;41355;50.390;19.096;2023-02-13T15:19:12;43.63;;;12.60;;
55493;SDS011;41355;50.390;19.096;2023-02-13T15:21:44;18.77;;;6.13;;
55493;SDS011;41355;50.390;19.096;2023-02-13T15:24:12;49.58;;;13.95;;
55493;SDS011;41355;50.390;19.096;2023-02-13T15:26:39;75.65;;;21.60;;
55493;SDS011;41355;50.390;19.096;2023-02-13T15:29:16;95.65;;;25.67;;
55493;SDS011;41355;50.390;19.096;2023-02-13T15:31:42;448.65;;;124.93;;
55493;SDS011;41355;50.390;19.096;2023-02-13T15:34:21;109.50;;;29.15;;
55493;SDS011;41355;50.390;19.096;2023-02-13T15:36:47;59.00;;;15.93;;
55493;SDS011;41355;50.390;19.096;2023-02-13T15:39:18;34.38;;;8.80;;
55493;SDS011;41355;50.390;19.096;2023-02-13T15:41:45;141.15;;;32.10;;
55493;SDS011;41355;50.390;19.096;2023-02-13T15:44:18;30.70;;;9.77;;
55493;SDS011;41355;50.390;19.096;2023-02-13T15:46:48;77.68;;;20.45;;
55493;SDS011;41355;50.390;19.096;2023-02-13T15:49:18;365.35;;;83.65;;
55493;SDS011;41355;50.390;19.096;2023-02-13T15:51:45;101.53;;;27.48;;
55493;SDS011;41355;50.390;19.096;2023-02-13T15:54:22;345.38;;;81.38;;
55493;SDS011;41355;50.390;19.096;2023-02-13T15:56:49;211.13;;;54.65;;
55493;SDS011;41355;50.390;19.096;2023-02-13T15:59:15;256.42;;;61.17;;
55493;SDS011;41355;50.390;19.096;2023-02-13T16:01:42;330.08;;;70.28;;
55493;SDS011;41355;50.390;19.096;2023-02-13T16:04:10;252.32;;;58.15;;
55493;SDS011;41355;50.390;19.096;2023-02-13T16:06:39;105.55;;;25.83;;
55493;SDS011;41355;50.390;19.096;2023-02-13T16:09:05;180.60;;;49.22;;
55493;SDS011;41355;50.390;19.096;2023-02-13T16:14:09;45.50;;;13.57;;
55493;SDS011;41355;50.390;19.096;2023-02-13T16:17:11;25.73;;;8.95;;
55493;SDS011;41355;50.390;19.096;2023-02-13T16:21:57;25.92;;;9.35;;
55493;SDS011;41355;50.390;19.096;2023-02-13T16:24:24;107.13;;;27.70;;
55493;SDS011;41355;50.390;19.096;2023-02-13T16:26:51;86.53;;;24.88;;
55493;SDS011;41355;50.390;19.096;2023-02-13T16:29:18;37.75;;;10.48;;
55493;SDS011;41355;50.390;19.096;2023-02-13T16:31:45;281.38;;;72.00;;
55493;SDS011;41355;50.390;19.096;2023-02-13T16:34:25;89.38;;;24.17;;
55493;SDS011;41355;50.390;19.096;2023-02-13T16:36:51;41.47;;;11.25;;
55493;SDS011;41355;50.390;19.096;2023-02-13T16:39:21;104.95;;;26.98;;
55493;SDS011;41355;50.390;19.096;2023-02-13T16:41:51;48.40;;;15.80;;
55493;SDS011;41355;50.390;19.096;2023-02-13T16:44:23;57.40;;;16.10;;
55493;SDS011;41355;50.390;19.096;2023-02-13T16:46:53;88.25;;;23.15;;
55493;SDS011;41355;50.390;19.096;2023-02-13T16:49:40;157.05;;;36.55;;
55493;SDS011;41355;50.390;19.096;2023-02-13T16:52:10;184.52;;;50.17;;